X  Close Metar Aviation Weather Data     KMLB Melbourne International Airport
Temperature
79°F Temperature
57°F Dewpoint
48% Humidity



Wind
14 MPH
23 KM/H
6 M/S
12 KTS



50°
NE
Current Conditions

Mostly Cloudy Mostly Cloudy
Pressure 1020.62 (hPa) - 30.14 (inHg)
Visibility 9.9 (mile) - 16 (km)
Airport
Airport-code KMLB

Location: Melbourne International Airport
Distance: 4 (mi)

Metar:
KMLB 162053Z 05012KT 10SM BKN049 26/14 A3014 RMK AO2 SLP205 T02560144 55016

Time: 16-05-2021 4:53 pm EDT